Time;durP1;ratioP1;P1;durP2;ratioP2;P2;SDS_P1;SDS_P2;PMS_P1;PMS_P2;Temp;Humidity;BMP_temperature;BMP_pressure;BME280_temperature;BME280_humidity;BME280_pressure;Samples;Min_cycle;Max_cycle;Signal;HPM_P1;HPM_P2
2023/05/11 00:00:22;;;;;;;;;;;;;;;13.24;100.00;101354.09;10498248;28;20458;-63
2023/05/11 00:05:24;;;;;;;;;;;;;;;13.01;100.00;101353.69;10498351;28;19924;-63
2023/05/11 00:10:27;;;;;;;;;;;;;;;13.08;100.00;101350.69;10498207;28;19932;-64
2023/05/11 00:15:30;;;;;;;;;;;;;;;12.97;100.00;101349.53;10496996;28;20334;-63
2023/05/11 00:20:32;;;;;;;;;;;;;;;13.00;100.00;101340.63;10498542;28;19932;-63
2023/05/11 00:25:34;;;;;;;;;;;;;;;13.32;100.00;101330.84;10504668;28;19925;-63
2023/05/11 00:30:38;;;;;;;;;;;;;;;13.12;100.00;101333.81;10506236;28;19925;-63
2023/05/11 00:35:41;;;;;;;;;;;;;;;13.15;100.00;101341.50;10504167;28;20379;-63
2023/05/11 00:40:44;;;;;;;;;;;;;;;13.08;100.00;101345.41;10506386;28;19931;-63
2023/05/11 00:45:47;;;;;;;;;;;;;;;13.11;100.00;101335.59;10505157;28;19924;-64
2023/05/11 00:50:49;;;;;;;;;;;;;;;13.02;100.00;101333.50;10488401;28;19928;-64
2023/05/11 00:55:51;;;;;;;;;;;;;;;13.17;100.00;101339.63;10503428;28;19970;-64
2023/05/11 01:00:53;;;;;;;;;;;;;;;13.12;100.00;101339.06;10487762;28;19936;-64
2023/05/11 01:06:15;;;;;;;;;;;;;;;12.93;100.00;101340.16;10487645;28;19924;-64
2023/05/11 01:11:43;;;;;;;;;;;;;;;12.97;100.00;101344.28;10547525;22;19924;-64
2023/05/11 01:16:46;;;;;;;;;;;;;;;12.87;100.00;101353.63;10541122;28;20317;-64
2023/05/11 01:21:48;;;;;;;;;;;;;;;12.87;100.00;101356.25;10546756;28;19960;-64
2023/05/11 01:26:56;;;;;;;;;;;;;;;13.05;100.00;101362.22;10545463;28;19950;-64
2023/05/11 01:31:58;;;;;;;;;;;;;;;13.13;100.00;101359.13;10545403;28;19925;-65
2023/05/11 01:37:04;;;;;;;;;;;;;;;13.17;100.00;101360.66;10545021;28;20010;-64
2023/05/11 01:42:07;;;;;;;;;;;;;;;13.19;100.00;101353.53;10544124;28;19990;-64
2023/05/11 01:47:10;;;;;;;;;;;;;;;13.10;100.00;101362.81;10543741;28;19924;-64
2023/05/11 01:52:12;;;;;;;;;;;;;;;13.16;100.00;101365.09;10526153;28;19950;-64
2023/05/11 01:57:15;;;;;;;;;;;;;;;13.15;100.00;101373.06;10544475;28;19924;-64
2023/05/11 02:02:17;;;;;;;;;;;;;;;13.18;100.00;101365.84;10543326;28;20384;-64
2023/05/11 02:07:20;;;;;;;;;;;;;;;13.29;100.00;101380.97;10543864;28;20006;-64
2023/05/11 02:12:22;;;;;;;;;;;;;;;13.38;100.00;101369.06;10543243;28;20014;-64
2023/05/11 02:17:24;;;;;;;;;;;;;;;13.19;100.00;101370.13;10542443;28;19973;-64
2023/05/11 02:22:26;;;;;;;;;;;;;;;13.47;100.00;101373.78;10544301;28;19924;-64
2023/05/11 02:27:28;;;;;;;;;;;;;;;13.27;100.00;101364.44;10542533;28;19928;-65
2023/05/11 02:32:32;;;;;;;;;;;;;;;13.30;100.00;101358.16;10540949;28;20329;-64
2023/05/11 02:37:34;;;;;;;;;;;;;;;13.13;100.00;101373.16;10542898;28;19970;-64
2023/05/11 02:42:37;;;;;;;;;;;;;;;13.11;100.00;101372.41;10543488;28;19924;-64
2023/05/11 02:47:44;;;;;;;;;;;;;;;13.15;100.00;101366.00;10541737;28;19981;-64
2023/05/11 02:52:46;;;;;;;;;;;;;;;13.10;100.00;101356.72;10540716;28;19924;-64
2023/05/11 02:57:48;;;;;;;;;;;;;;;13.01;100.00;101360.69;10540858;28;19931;-64
2023/05/11 03:02:51;;;;;;;;;;;;;;;12.86;100.00;101357.22;10542830;28;19924;-65
2023/05/11 03:07:53;;;;;;;;;;;;;;;12.55;100.00;101366.84;10541820;28;19924;-64
2023/05/11 03:12:55;;;;;;;;;;;;;;;12.63;100.00;101361.16;10540438;28;19924;-64
2023/05/11 03:17:58;;;;;;;;;;;;;;;12.50;100.00;101363.63;10541293;28;19927;-64
2023/05/11 03:23:00;;;;;;;;;;;;;;;12.49;100.00;101369.81;10539958;28;19932;-64
2023/05/11 03:28:02;;;;;;;;;;;;;;;12.51;100.00;101369.72;10540026;28;19986;-64
2023/05/11 03:33:05;;;;;;;;;;;;;;;12.58;100.00;101371.09;10539018;28;19969;-64
2023/05/11 03:38:07;;;;;;;;;;;;;;;12.67;100.00;101361.81;10539389;28;19924;-64
2023/05/11 03:43:13;;;;;;;;;;;;;;;12.63;100.00;101353.28;10539484;28;19924;-64
2023/05/11 03:48:16;;;;;;;;;;;;;;;12.40;100.00;101370.31;10540169;28;19928;-65
2023/05/11 03:53:18;;;;;;;;;;;;;;;12.57;100.00;101364.13;10538440;28;20379;-65
2023/05/11 03:58:20;;;;;;;;;;;;;;;12.70;100.00;101362.50;10538278;28;20332;-65
2023/05/11 04:03:23;;;;;;;;;;;;;;;12.70;100.00;101354.59;10539647;28;19931;-64
2023/05/11 04:08:25;;;;;;;;;;;;;;;12.91;100.00;101352.53;10539333;28;20011;-65
2023/05/11 04:13:27;;;;;;;;;;;;;;;12.73;100.00;101367.56;10540629;28;19924;-64
2023/05/11 04:18:30;;;;;;;;;;;;;;;13.09;100.00;101374.25;10539274;28;19978;-65
2023/05/11 04:23:32;;;;;;;;;;;;;;;12.81;100.00;101377.66;10539668;28;19924;-65
2023/05/11 04:28:34;;;;;;;;;;;;;;;13.00;100.00;101372.16;10538585;28;19928;-65
2023/05/11 04:33:36;;;;;;;;;;;;;;;12.96;100.00;101387.28;10540197;28;19924;-65
2023/05/11 04:38:39;;;;;;;;;;;;;;;13.14;100.00;101381.88;10539140;28;19969;-65
2023/05/11 04:43:41;;;;;;;;;;;;;;;13.15;100.00;101379.16;10538898;28;19931;-65
2023/05/11 04:48:43;;;;;;;;;;;;;;;13.41;100.00;101378.56;10538335;28;20374;-65
2023/05/11 04:53:45;;;;;;;;;;;;;;;13.05;100.00;101388.53;10539845;28;19954;-65
2023/05/11 04:58:48;;;;;;;;;;;;;;;13.25;100.00;101384.72;10538697;28;19929;-65
2023/05/11 05:03:50;;;;;;;;;;;;;;;13.27;100.00;101388.09;10539717;28;19931;-65
2023/05/11 05:08:53;;;;;;;;;;;;;;;13.36;100.00;101389.38;10539662;28;19931;-65
2023/05/11 05:13:55;;;;;;;;;;;;;;;13.38;100.00;101398.00;10546508;28;20282;-65
2023/05/11 05:18:57;;;;;;;;;;;;;;;13.20;100.00;101392.03;10545232;28;19924;-65
2023/05/11 05:23:59;;;;;;;;;;;;;;;13.48;100.00;101393.03;10546118;28;20286;-65
2023/05/11 05:29:01;;;;;;;;;;;;;;;13.56;100.00;101399.53;10545855;28;19931;-65
2023/05/11 05:34:04;;;;;;;;;;;;;;;13.74;100.00;101404.63;10543707;28;20336;-65
2023/05/11 05:39:09;;;;;;;;;;;;;;;13.89;100.00;101411.56;10544413;28;19978;-65
2023/05/11 05:44:11;;;;;;;;;;;;;;;14.10;100.00;101411.19;10544980;28;19977;-65
2023/05/11 05:49:13;;;;;;;;;;;;;;;13.98;100.00;101417.22;10545814;28;19931;-65
2023/05/11 05:54:15;;;;;;;;;;;;;;;13.93;100.00;101426.22;10542856;28;19931;-65
2023/05/11 05:59:22;;;;;;;;;;;;;;;14.15;100.00;101421.44;10544618;28;19947;-65
2023/05/11 06:04:24;;;;;;;;;;;;;;;14.53;100.00;101428.72;10544473;28;19940;-65
2023/05/11 06:09:26;;;;;;;;;;;;;;;14.46;100.00;101423.00;10543457;28;19989;-65
2023/05/11 06:14:29;;;;;;;;;;;;;;;14.55;100.00;101430.28;10543281;28;20862;-65
2023/05/11 06:19:31;;;;;;;;;;;;;;;14.40;100.00;101428.63;10543106;28;19924;-65
2023/05/11 06:24:33;;;;;;;;;;;;;;;14.58;100.00;101435.38;10542043;28;20325;-65
2023/05/11 06:29:37;;;;;;;;;;;;;;;14.81;100.00;101433.06;10544159;28;19977;-65
2023/05/11 06:34:39;;;;;;;;;;;;;;;14.64;100.00;101432.38;10541336;28;19924;-65
2023/05/11 06:39:41;;;;;;;;;;;;;;;14.74;100.00;101426.50;10543614;28;19924;-65
2023/05/11 06:44:43;;;;;;;;;;;;;;;15.02;100.00;101422.91;10543592;28;19931;-65
2023/05/11 06:49:45;;;;;;;;;;;;;;;15.30;100.00;101413.13;10540767;28;19924;-65
2023/05/11 06:54:48;;;;;;;;;;;;;;;14.98;100.00;101431.97;10540317;28;20397;-65
2023/05/11 06:59:50;;;;;;;;;;;;;;;15.47;100.00;101420.75;10542226;28;19931;-65
2023/05/11 07:04:52;;;;;;;;;;;;;;;15.67;100.00;101424.69;10542175;28;19924;-65
2023/05/11 07:09:54;;;;;;;;;;;;;;;15.62;100.00;101424.16;10533652;28;19928;-65
2023/05/11 07:14:56;;;;;;;;;;;;;;;15.50;100.00;101425.84;10515975;28;19931;-65
2023/05/11 07:19:59;;;;;;;;;;;;;;;15.57;100.00;101431.53;10540918;28;20367;-65
2023/05/11 07:25:01;;;;;;;;;;;;;;;15.07;100.00;101434.00;10541235;28;20271;-65
2023/05/11 07:30:04;;;;;;;;;;;;;;;15.84;100.00;101436.75;10540847;28;19977;-65
2023/05/11 07:35:06;;;;;;;;;;;;;;;15.76;100.00;101431.97;10539678;28;20268;-65
2023/05/11 07:40:08;;;;;;;;;;;;;;;15.83;100.00;101428.91;10541356;28;19981;-65
2023/05/11 07:45:11;;;;;;;;;;;;;;;15.63;100.00;101435.53;10539698;28;20436;-64
2023/05/11 07:50:13;;;;;;;;;;;;;;;15.54;100.00;101431.75;10519055;28;19969;-64
2023/05/11 07:55:15;;;;;;;;;;;;;;;14.96;100.00;101445.25;10520812;28;20444;-64
2023/05/11 08:00:18;;;;;;;;;;;;;;;15.56;100.00;101435.94;10540685;28;19925;-64
2023/05/11 08:05:21;;;;;;;;;;;;;;;15.33;100.00;101429.63;10539050;28;19924;-64
2023/05/11 08:10:23;;;;;;;;;;;;;;;15.39;100.00;101436.28;10537498;28;19930;-64
2023/05/11 08:15:25;;;;;;;;;;;;;;;15.75;100.00;101435.59;10538982;28;19997;-64
2023/05/11 08:20:28;;;;;;;;;;;;;;;15.96;100.00;101435.03;10539343;28;20374;-64
2023/05/11 08:25:30;;;;;;;;;;;;;;;15.74;100.00;101439.13;10539409;28;19924;-64
2023/05/11 08:30:32;;;;;;;;;;;;;;;15.71;100.00;101452.53;10539096;28;19977;-64
2023/05/11 08:35:35;;;;;;;;;;;;;;;15.48;100.00;101451.47;10539176;28;19931;-64
2023/05/11 08:40:37;;;;;;;;;;;;;;;15.38;100.00;101438.06;10539270;28;19924;-64
2023/05/11 08:45:40;;;;;;;;;;;;;;;15.70;100.00;101439.44;10544501;28;20313;-64
2023/05/11 08:50:43;;;;;;;;;;;;;;;15.57;100.00;101442.94;10538030;28;19924;-64
2023/05/11 08:55:46;;;;;;;;;;;;;;;15.63;100.00;101440.81;10545288;28;19928;-64
2023/05/11 09:00:48;;;;;;;;;;;;;;;15.21;100.00;101446.25;10545508;28;20443;-64
2023/05/11 09:05:50;;;;;;;;;;;;;;;15.57;100.00;101447.38;10546565;28;20393;-65
2023/05/11 09:10:53;;;;;;;;;;;;;;;15.42;100.00;101443.97;10544611;28;19974;-64
2023/05/11 09:15:55;;;;;;;;;;;;;;;15.52;99.66;101449.47;10544973;28;19994;-64
2023/05/11 09:20:59;;;;;;;;;;;;;;;15.13;100.00;101461.72;10545671;28;19977;-64
2023/05/11 09:26:01;;;;;;;;;;;;;;;15.90;100.00;101457.44;10539614;28;19931;-64
2023/05/11 09:31:04;;;;;;;;;;;;;;;16.22;97.25;101451.66;10545376;28;19931;-64
2023/05/11 09:36:08;;;;;;;;;;;;;;;16.14;98.76;101454.03;10542951;28;19927;-64
2023/05/11 09:41:10;;;;;;;;;;;;;;;16.04;96.58;101456.47;10543120;28;19924;-65
2023/05/11 09:46:19;;;;;;;;;;;;;;;15.78;96.75;101460.91;10543761;28;19973;-67
2023/05/11 09:51:27;;;;;;;;;;;;;;;16.12;100.00;101464.72;10533643;28;20298;-64
2023/05/11 09:56:43;;;;;;;;;;;;;;;16.41;100.00;101460.94;10543471;28;20428;-65
2023/05/11 10:01:45;;;;;;;;;;;;;;;16.17;100.00;101461.72;10542672;28;19981;-65
2023/05/11 10:06:48;;;;;;;;;;;;;;;15.91;99.29;101461.75;10542015;28;20393;-65
2023/05/11 10:11:51;;;;;;;;;;;;;;;16.07;100.00;101468.59;10543452;28;19928;-65
2023/05/11 10:16:53;;;;;;;;;;;;;;;15.75;100.00;101469.91;10542769;28;19924;-65
2023/05/11 10:21:55;;;;;;;;;;;;;;;15.81;100.00;101470.44;10542281;28;19974;-65
2023/05/11 10:26:57;;;;;;;;;;;;;;;15.74;100.00;101472.63;10540731;28;19924;-65
2023/05/11 10:31:59;;;;;;;;;;;;;;;15.31;100.00;101476.34;10542872;28;19930;-65
2023/05/11 10:37:02;;;;;;;;;;;;;;;15.49;100.00;101470.78;10543786;28;19954;-65
2023/05/11 10:42:04;;;;;;;;;;;;;;;15.39;100.00;101466.13;10543055;28;19953;-65
2023/05/11 10:47:22;;;;;;;;;;;;;;;15.48;100.00;101469.09;10542292;28;20396;-64
2023/05/11 10:52:24;;;;;;;;;;;;;;;15.65;100.00;101475.88;10533482;28;20283;-65
2023/05/11 10:57:43;;;;;;;;;;;;;;;15.73;100.00;101473.56;10542788;28;19931;-65
2023/05/11 11:02:45;;;;;;;;;;;;;;;16.03;100.00;101478.53;10542810;28;19977;-65
2023/05/11 11:08:02;;;;;;;;;;;;;;;16.25;100.00;101479.69;10542189;28;20007;-65
2023/05/11 11:13:08;;;;;;;;;;;;;;;16.37;100.00;101462.94;10543217;28;19931;-64
2023/05/11 11:18:20;;;;;;;;;;;;;;;16.33;100.00;101469.41;10542583;28;20391;-65
2023/05/11 11:23:41;;;;;;;;;;;;;;;16.79;100.00;101465.25;10541602;28;19924;-64
2023/05/11 11:28:52;;;;;;;;;;;;;;;17.14;100.00;101454.75;10541512;28;20374;-64
2023/05/11 11:33:57;;;;;;;;;;;;;;;17.18;100.00;101450.94;10541911;28;20373;-64
2023/05/11 11:39:00;;;;;;;;;;;;;;;17.60;100.00;101455.69;10541251;28;19924;-64
2023/05/11 11:44:03;;;;;;;;;;;;;;;17.46;100.00;101449.66;10540607;28;19927;-65
2023/05/11 11:49:06;;;;;;;;;;;;;;;17.71;100.00;101447.78;10541799;28;19927;-67
2023/05/11 11:54:08;;;;;;;;;;;;;;;17.92;100.00;101440.03;10529320;28;19924;-65
2023/05/11 11:59:12;;;;;;;;;;;;;;;17.85;100.00;101444.06;10540587;28;19930;-67
2023/05/11 12:04:28;;;;;;;;;;;;;;;17.27;97.30;101444.94;10540281;28;19928;-64
2023/05/11 12:09:31;;;;;;;;;;;;;;;17.23;100.00;101440.84;10538745;28;19946;-65
2023/05/11 12:14:33;;;;;;;;;;;;;;;17.06;98.51;101443.88;10539933;28;19959;-63
2023/05/11 12:19:35;;;;;;;;;;;;;;;17.23;97.19;101432.03;10543212;28;19982;-63
2023/05/11 12:24:38;;;;;;;;;;;;;;;17.35;99.38;101435.56;10548865;28;19961;-63
2023/05/11 12:29:40;;;;;;;;;;;;;;;17.40;100.00;101444.84;10548335;28;20294;-63
2023/05/11 12:34:42;;;;;;;;;;;;;;;16.82;97.55;101438.59;10547906;28;20386;-64
2023/05/11 12:39:44;;;;;;;;;;;;;;;17.30;100.00;101440.34;10546572;28;19924;-62
2023/05/11 12:44:47;;;;;;;;;;;;;;;17.30;96.79;101435.06;10546327;28;19924;-62
2023/05/11 12:49:49;;;;;;;;;;;;;;;17.27;97.89;101433.50;10548234;28;19924;-62
2023/05/11 12:54:57;;;;;;;;;;;;;;;17.54;97.98;101427.91;10537802;28;19924;-62
2023/05/11 13:00:14;;;;;;;;;;;;;;;17.04;95.80;101428.13;10547465;28;19974;-63
2023/05/11 13:05:17;;;;;;;;;;;;;;;16.99;94.56;101427.63;10547063;28;20298;-63
2023/05/11 13:10:22;;;;;;;;;;;;;;;17.50;94.06;101428.25;10545098;28;19931;-63
2023/05/11 13:15:24;;;;;;;;;;;;;;;17.44;89.58;101425.13;10547256;28;19973;-62
2023/05/11 13:20:28;;;;;;;;;;;;;;;18.02;91.93;101426.88;10546291;28;20374;-63
2023/05/11 13:25:31;;;;;;;;;;;;;;;18.50;88.58;101423.06;10489209;22;19932;-65
2023/05/11 13:30:33;;;;;;;;;;;;;;;17.58;91.26;101416.09;10460240;28;19925;-64
2023/05/11 13:35:40;;;;;;;;;;;;;;;18.15;86.66;101416.16;10460460;28;19952;-65
2023/05/11 13:40:42;;;;;;;;;;;;;;;18.79;87.69;101411.88;10462191;28;19925;-64
2023/05/11 13:45:45;;;;;;;;;;;;;;;18.69;85.56;101414.44;10457552;28;19932;-65
2023/05/11 13:50:47;;;;;;;;;;;;;;;18.23;84.32;101413.72;10460182;28;20413;-65
2023/05/11 13:55:49;;;;;;;;;;;;;;;17.68;85.74;101421.53;10460282;28;19925;-65
2023/05/11 14:00:52;;;;;;;;;;;;;;;17.64;86.17;101418.28;10461437;28;20337;-65
2023/05/11 14:06:08;;;;;;;;;;;;;;;17.77;86.71;101412.03;10459072;28;19928;-65
2023/05/11 14:11:10;;;;;;;;;;;;;;;17.27;85.72;101412.34;10458075;28;20326;-65
2023/05/11 14:16:12;;;;;;;;;;;;;;;17.89;87.15;101413.75;10460891;28;19932;-65
2023/05/11 14:21:16;;;;;;;;;;;;;;;18.31;84.43;101406.00;10461314;28;19974;-65
2023/05/11 14:26:18;;;;;;;;;;;;;;;17.95;86.81;101412.44;10460394;28;20438;-65
2023/05/11 14:31:20;;;;;;;;;;;;;;;17.66;83.05;101409.41;10459282;28;19964;-65
2023/05/11 14:36:22;;;;;;;;;;;;;;;18.35;85.21;101417.19;10458946;28;20379;-65
2023/05/11 14:41:24;;;;;;;;;;;;;;;18.72;84.19;101415.03;10458876;28;19948;-65
2023/05/11 14:46:27;;;;;;;;;;;;;;;17.58;82.44;101410.81;10460364;28;19925;-65
2023/05/11 14:51:29;;;;;;;;;;;;;;;18.24;82.34;101414.56;10458546;28;19990;-65
2023/05/11 14:56:31;;;;;;;;;;;;;;;18.05;83.64;101416.03;10459329;28;19947;-65
2023/05/11 15:01:33;;;;;;;;;;;;;;;18.39;81.72;101408.03;10459601;28;19925;-65
2023/05/11 15:06:35;;;;;;;;;;;;;;;18.59;84.87;101410.88;10458702;28;19925;-65
2023/05/11 15:11:38;;;;;;;;;;;;;;;18.70;82.28;101403.72;10458711;28;19951;-65
2023/05/11 15:16:40;;;;;;;;;;;;;;;18.83;80.81;101408.91;10459109;28;19951;-65
2023/05/11 15:21:42;;;;;;;;;;;;;;;18.57;78.95;101409.19;10458298;28;19995;-65
2023/05/11 15:26:45;;;;;;;;;;;;;;;18.50;78.46;101408.00;10458120;28;20334;-65
2023/05/11 15:31:47;;;;;;;;;;;;;;;18.66;78.45;101418.22;10458690;28;19925;-65
2023/05/11 15:36:51;;;;;;;;;;;;;;;18.39;78.07;101415.97;10457769;28;20346;-65
2023/05/11 15:41:54;;;;;;;;;;;;;;;18.58;77.21;101412.69;10458116;28;19928;-65
2023/05/11 15:46:56;;;;;;;;;;;;;;;18.30;76.67;101412.25;10457508;28;20372;-65
2023/05/11 15:51:58;;;;;;;;;;;;;;;18.27;76.42;101406.38;10456919;28;20327;-65
2023/05/11 15:57:01;;;;;;;;;;;;;;;17.99;76.22;101416.53;10457154;28;20340;-65
2023/05/11 16:02:03;;;;;;;;;;;;;;;18.26;75.34;101417.97;10456946;28;20379;-65
2023/05/11 16:07:06;;;;;;;;;;;;;;;18.26;71.37;101415.31;10457681;28;19925;-65
2023/05/11 16:12:08;;;;;;;;;;;;;;;18.23;76.43;101420.84;10456789;28;19975;-65
2023/05/11 16:17:11;;;;;;;;;;;;;;;18.20;75.68;101414.81;10457228;28;19936;-65
2023/05/11 16:22:13;;;;;;;;;;;;;;;17.52;75.78;101413.13;10455146;28;19931;-65
2023/05/11 16:27:15;;;;;;;;;;;;;;;17.51;81.09;101411.41;10456096;28;19925;-65
2023/05/11 16:32:19;;;;;;;;;;;;;;;17.37;84.94;101412.47;10454925;28;19928;-65
2023/05/11 16:37:21;;;;;;;;;;;;;;;17.14;88.34;101419.50;10456971;28;19925;-69
2023/05/11 16:42:23;;;;;;;;;;;;;;;16.94;91.72;101424.47;10454055;28;20368;-65
2023/05/11 16:47:26;;;;;;;;;;;;;;;16.68;95.95;101429.88;10455559;28;19925;-65
2023/05/11 16:52:28;;;;;;;;;;;;;;;16.70;95.31;101432.41;10454782;28;19929;-65
2023/05/11 16:57:31;;;;;;;;;;;;;;;16.25;96.87;101430.31;10453029;28;20280;-65
2023/05/11 17:02:33;;;;;;;;;;;;;;;16.16;100.00;101438.91;10433462;28;19929;-65
2023/05/11 17:07:35;;;;;;;;;;;;;;;16.15;100.00;101430.16;10459418;28;20291;-65
2023/05/11 17:12:39;;;;;;;;;;;;;;;16.38;100.00;101429.47;10463558;28;19932;-65
2023/05/11 17:17:41;;;;;;;;;;;;;;;16.22;100.00;101433.19;10461596;28;19925;-65
2023/05/11 17:22:44;;;;;;;;;;;;;;;16.31;100.00;101435.19;10463172;28;19983;-65
2023/05/11 17:27:46;;;;;;;;;;;;;;;16.16;100.00;101441.56;10462471;28;19925;-65
2023/05/11 17:32:48;;;;;;;;;;;;;;;16.37;100.00;101433.88;10462280;28;20342;-65
2023/05/11 17:37:51;;;;;;;;;;;;;;;16.26;100.00;101441.75;10462517;28;20384;-65
2023/05/11 17:42:53;;;;;;;;;;;;;;;16.04;100.00;101442.41;10462911;28;19925;-65
2023/05/11 17:47:56;;;;;;;;;;;;;;;16.05;100.00;101444.94;10462221;28;19925;-65
2023/05/11 17:52:58;;;;;;;;;;;;;;;15.90;100.00;101452.16;10461589;28;19929;-65
2023/05/11 17:58:00;;;;;;;;;;;;;;;15.92;100.00;101454.66;10455695;28;19924;-66
2023/05/11 18:03:03;;;;;;;;;;;;;;;15.87;100.00;101447.09;10456848;28;19975;-65
2023/05/11 18:08:05;;;;;;;;;;;;;;;15.81;100.00;101447.50;10461274;28;20290;-65
2023/05/11 18:13:10;;;;;;;;;;;;;;;15.72;100.00;101448.13;10461527;28;19929;-65
2023/05/11 18:18:13;;;;;;;;;;;;;;;15.63;100.00;101459.31;10456365;28;20268;-65
2023/05/11 18:23:15;;;;;;;;;;;;;;;15.70;100.00;101457.91;10456983;28;19978;-65
2023/05/11 18:28:17;;;;;;;;;;;;;;;15.73;100.00;101465.63;10456403;28;19925;-65
2023/05/11 18:33:19;;;;;;;;;;;;;;;15.65;100.00;101463.53;10456752;28;20338;-65
2023/05/11 18:38:22;;;;;;;;;;;;;;;15.59;100.00;101470.06;10450220;28;20284;-65
2023/05/11 18:43:24;;;;;;;;;;;;;;;15.48;100.00;101469.09;10427521;28;19924;-65
2023/05/11 18:48:27;;;;;;;;;;;;;;;15.40;100.00;101470.47;10443963;28;19978;-65
2023/05/11 18:53:29;;;;;;;;;;;;;;;15.21;100.00;101478.78;10445138;28;19987;-65
2023/05/11 18:58:32;;;;;;;;;;;;;;;15.28;100.00;101478.34;10458961;28;20318;-65
2023/05/11 19:03:35;;;;;;;;;;;;;;;15.11;100.00;101490.84;10441150;28;19951;-65
2023/05/11 19:08:37;;;;;;;;;;;;;;;15.09;100.00;101497.19;10456424;28;19928;-65
2023/05/11 19:13:39;;;;;;;;;;;;;;;15.04;100.00;101497.47;10457825;28;19925;-65
2023/05/11 19:18:42;;;;;;;;;;;;;;;14.89;100.00;101501.94;10456261;28;19931;-65
2023/05/11 19:23:44;;;;;;;;;;;;;;;14.79;100.00;101514.03;10456807;28;19925;-65
2023/05/11 19:28:46;;;;;;;;;;;;;;;14.95;100.00;101513.91;10458374;28;19943;-65
2023/05/11 19:33:49;;;;;;;;;;;;;;;14.91;100.00;101522.94;10456497;28;19928;-65
2023/05/11 19:38:51;;;;;;;;;;;;;;;14.83;100.00;101526.94;10458454;28;19925;-65
2023/05/11 19:43:53;;;;;;;;;;;;;;;14.80;100.00;101532.38;10456782;28;20361;-65
2023/05/11 19:48:56;;;;;;;;;;;;;;;14.82;100.00;101541.03;10456645;28;20380;-65
2023/05/11 19:53:58;;;;;;;;;;;;;;;14.89;100.00;101538.84;10457042;28;19929;-65
2023/05/11 19:59:03;;;;;;;;;;;;;;;14.71;100.00;101542.66;10457216;28;20397;-65
2023/05/11 20:04:06;;;;;;;;;;;;;;;14.66;100.00;101545.59;10457670;28;19971;-65
2023/05/11 20:09:08;;;;;;;;;;;;;;;14.66;100.00;101553.50;10453743;28;20292;-65
2023/05/11 20:14:10;;;;;;;;;;;;;;;14.77;100.00;101561.56;10456072;28;19971;-65
2023/05/11 20:19:13;;;;;;;;;;;;;;;14.80;100.00;101553.47;10454845;28;20011;-65
2023/05/11 20:24:15;;;;;;;;;;;;;;;14.84;100.00;101565.53;10455203;28;20354;-65
2023/05/11 20:29:17;;;;;;;;;;;;;;;15.00;100.00;101560.13;10454853;28;20391;-65
2023/05/11 20:34:19;;;;;;;;;;;;;;;14.85;100.00;101559.31;10455745;28;20376;-66
2023/05/11 20:39:22;;;;;;;;;;;;;;;14.69;100.00;101553.28;10454373;28;19967;-66
2023/05/11 20:44:24;;;;;;;;;;;;;;;14.88;100.00;101557.41;10460802;28;20277;-66
2023/05/11 20:49:27;;;;;;;;;;;;;;;14.63;100.00;101558.97;10461763;28;20345;-66
2023/05/11 20:54:39;;;;;;;;;;;;;;;14.53;100.00;101563.09;10464308;28;19928;-66
2023/05/11 20:59:41;;;;;;;;;;;;;;;14.36;100.00;101566.78;10463964;28;20429;-66
2023/05/11 21:04:47;;;;;;;;;;;;;;;14.10;100.00;101561.28;10462312;28;20035;-66
2023/05/11 21:09:49;;;;;;;;;;;;;;;14.22;100.00;101568.44;10461891;28;20449;-66
2023/05/11 21:14:51;;;;;;;;;;;;;;;14.30;100.00;101570.59;10462759;28;19925;-66
2023/05/11 21:19:55;;;;;;;;;;;;;;;14.31;100.00;101567.88;10463852;28;19931;-66
2023/05/11 21:24:57;;;;;;;;;;;;;;;14.25;100.00;101564.78;10462513;28;19925;-66
2023/05/11 21:30:00;;;;;;;;;;;;;;;14.18;100.00;101566.94;10462463;28;19929;-66
2023/05/11 21:35:02;;;;;;;;;;;;;;;14.14;100.00;101568.06;10463502;28;19925;-66
2023/05/11 21:40:06;;;;;;;;;;;;;;;13.78;100.00;101571.09;10461699;28;20417;-66
2023/05/11 21:45:08;;;;;;;;;;;;;;;13.90;100.00;101571.22;10462099;28;20368;-66
2023/05/11 21:50:11;;;;;;;;;;;;;;;13.82;100.00;101575.22;10461454;28;19971;-66
2023/05/11 21:55:13;;;;;;;;;;;;;;;13.75;100.00;101578.22;10461913;28;19970;-67
2023/05/11 22:00:16;;;;;;;;;;;;;;;13.67;100.00;101579.63;10461001;28;20318;-67
2023/05/11 22:05:20;;;;;;;;;;;;;;;13.68;100.00;101586.56;10462214;28;19983;-67
2023/05/11 22:10:23;;;;;;;;;;;;;;;13.94;100.00;101575.34;10460213;28;19925;-67
2023/05/11 22:15:26;;;;;;;;;;;;;;;13.92;100.00;101569.34;10459841;28;20335;-67
2023/05/11 22:20:30;;;;;;;;;;;;;;;13.98;100.00;101570.75;10460001;28;19932;-66
2023/05/11 22:25:32;;;;;;;;;;;;;;;13.74;100.00;101567.78;10460207;28;19978;-66
2023/05/11 22:30:36;;;;;;;;;;;;;;;13.83;100.00;101569.03;10460981;28;19925;-66
2023/05/11 22:35:38;;;;;;;;;;;;;;;13.75;100.00;101562.44;10459090;28;19925;-67
2023/05/11 22:40:41;;;;;;;;;;;;;;;13.78;100.00;101563.19;10460101;28;19932;-66
2023/05/11 22:45:43;;;;;;;;;;;;;;;13.65;100.00;101560.41;10459743;28;19925;-66
2023/05/11 22:50:46;;;;;;;;;;;;;;;13.69;100.00;101565.41;10418503;28;19925;-66
2023/05/11 22:55:48;;;;;;;;;;;;;;;13.81;100.00;101560.38;10418971;28;19952;-66
2023/05/11 23:00:54;;;;;;;;;;;;;;;13.64;100.00;101564.00;10421851;28;19940;-66
2023/05/11 23:05:56;;;;;;;;;;;;;;;13.53;100.00;101567.22;10457816;28;19925;-66
2023/05/11 23:10:59;;;;;;;;;;;;;;;13.60;100.00;101552.81;10459571;28;19925;-66
2023/05/11 23:16:04;;;;;;;;;;;;;;;13.29;100.00;101566.84;10458714;28;20280;-66
2023/05/11 23:21:07;;;;;;;;;;;;;;;13.37;100.00;101549.72;10457606;28;20335;-67
2023/05/11 23:26:09;;;;;;;;;;;;;;;13.18;100.00;101555.13;10457178;28;20380;-67
2023/05/11 23:31:11;;;;;;;;;;;;;;;12.83;100.00;101559.72;10458133;28;20007;-67
2023/05/11 23:36:14;;;;;;;;;;;;;;;13.05;100.00;101554.13;10457229;28;20280;-67
2023/05/11 23:41:16;;;;;;;;;;;;;;;12.85;100.00;101547.34;10456162;28;19929;-67
2023/05/11 23:46:18;;;;;;;;;;;;;;;12.89;100.00;101548.03;10455586;28;19925;-67
2023/05/11 23:51:20;;;;;;;;;;;;;;;12.66;100.00;101538.75;10458138;28;19971;-67
2023/05/11 23:56:23;;;;;;;;;;;;;;;12.88;100.00;101543.69;10457937;28;19928;-67
